sensor_id;sensor_type;location;lat;lon;timestamp;pressure;altitude;pressure_sealevel;temperature;humidity
65131;BME280;51709;54.912;8.316;2023-03-20T00:01:48;101491.00;;;5.34;80.25
65131;BME280;51709;54.912;8.316;2023-03-20T00:07:08;101491.00;;;5.34;80.36
65131;BME280;51709;54.912;8.316;2023-03-20T00:12:32;101496.97;;;5.38;80.52
65131;BME280;51709;54.912;8.316;2023-03-20T00:17:52;101507.19;;;5.41;80.63
65131;BME280;51709;54.912;8.316;2023-03-20T00:23:13;101510.56;;;5.42;80.71
65131;BME280;51709;54.912;8.316;2023-03-20T00:28:37;101507.19;;;5.43;80.64
65131;BME280;51709;54.912;8.316;2023-03-20T00:34:02;101492.00;;;5.49;80.58
65131;BME280;51709;54.912;8.316;2023-03-20T00:39:25;101499.69;;;5.52;80.39
65131;BME280;51709;54.912;8.316;2023-03-20T00:44:49;101488.69;;;5.58;80.43
65131;BME280;51709;54.912;8.316;2023-03-20T00:50:15;101491.28;;;5.62;80.41
65131;BME280;51709;54.912;8.316;2023-03-20T00:55:38;101481.16;;;5.67;80.29
65131;BME280;51709;54.912;8.316;2023-03-20T01:00:59;101482.03;;;5.70;80.22
65131;BME280;51709;54.912;8.316;2023-03-20T01:06:21;101482.03;;;5.72;80.44
65131;BME280;51709;54.912;8.316;2023-03-20T01:11:42;101495.66;;;5.76;80.38
65131;BME280;51709;54.912;8.316;2023-03-20T01:17:03;101504.16;;;5.76;80.57
65131;BME280;51709;54.912;8.316;2023-03-20T01:22:24;101497.41;;;5.81;80.50
65131;BME280;51709;54.912;8.316;2023-03-20T01:27:53;101490.63;;;5.80;80.68
65131;BME280;51709;54.912;8.316;2023-03-20T01:33:17;101492.38;;;5.89;80.40
65131;BME280;51709;54.912;8.316;2023-03-20T01:38:41;101487.31;;;5.91;80.62
65131;BME280;51709;54.912;8.316;2023-03-20T01:44:25;101468.53;;;5.82;80.73
65131;BME280;51709;54.912;8.316;2023-03-20T01:50:19;101460.03;;;5.79;81.07
65131;BME280;51709;54.912;8.316;2023-03-20T01:55:50;101457.41;;;5.71;81.25
65131;BME280;51709;54.912;8.316;2023-03-20T02:01:15;101471.88;;;5.74;81.33
65131;BME280;51709;54.912;8.316;2023-03-20T02:06:38;101459.97;;;5.73;81.12
65131;BME280;51709;54.912;8.316;2023-03-20T02:12:09;101461.50;;;5.55;82.20
65131;BME280;51709;54.912;8.316;2023-03-20T02:17:31;101456.41;;;5.55;82.06
65131;BME280;51709;54.912;8.316;2023-03-20T02:51:37;101425.00;;;5.56;81.85
65131;BME280;51709;54.912;8.316;2023-03-20T03:02:37;101407.97;;;5.47;82.42
65131;BME280;51709;54.912;8.316;2023-03-20T03:08:02;101396.03;;;5.42;82.62
65131;BME280;51709;54.912;8.316;2023-03-20T03:13:29;101407.88;;;5.36;82.94
65131;BME280;51709;54.912;8.316;2023-03-20T03:19:08;101385.84;;;5.38;82.88
65131;BME280;51709;54.912;8.316;2023-03-20T03:24:35;101395.19;;;5.41;82.84
65131;BME280;51709;54.912;8.316;2023-03-20T03:30:17;101375.66;;;5.42;82.70
65131;BME280;51709;54.912;8.316;2023-03-20T03:35:44;101384.25;;;5.50;82.30
65131;BME280;51709;54.912;8.316;2023-03-20T03:46:39;101389.38;;;5.56;82.21
65131;BME280;51709;54.912;8.316;2023-03-20T03:52:09;101388.53;;;5.57;82.12
65131;BME280;51709;54.912;8.316;2023-03-20T03:57:40;101393.63;;;5.59;81.99
65131;BME280;51709;54.912;8.316;2023-03-20T04:03:06;101395.41;;;5.66;81.95
65131;BME280;51709;54.912;8.316;2023-03-20T04:08:28;101389.44;;;5.64;81.88
65131;BME280;51709;54.912;8.316;2023-03-20T04:13:50;101398.78;;;5.66;82.08
65131;BME280;51709;54.912;8.316;2023-03-20T04:19:11;101397.94;;;5.66;81.81
65131;BME280;51709;54.912;8.316;2023-03-20T04:24:32;101393.72;;;5.71;81.88
65131;BME280;51709;54.912;8.316;2023-03-20T04:29:53;101395.44;;;5.72;81.92
65131;BME280;51709;54.912;8.316;2023-03-20T04:35:33;101402.28;;;5.75;81.73
65131;BME280;51709;54.912;8.316;2023-03-20T04:41:00;101402.28;;;5.75;81.85
65131;BME280;51709;54.912;8.316;2023-03-20T04:46:21;101386.13;;;5.73;81.85
65131;BME280;51709;54.912;8.316;2023-03-20T04:51:43;101397.97;;;5.72;81.97
65131;BME280;51709;54.912;8.316;2023-03-20T04:57:06;101400.56;;;5.77;81.92
65131;BME280;51709;54.912;8.316;2023-03-20T05:02:28;101397.22;;;5.79;81.92
65131;BME280;51709;54.912;8.316;2023-03-20T05:07:48;101392.09;;;5.78;81.82
65131;BME280;51709;54.912;8.316;2023-03-20T05:13:17;101405.69;;;5.78;82.16
65131;BME280;51709;54.912;8.316;2023-03-20T05:18:57;101397.22;;;5.79;82.06
65131;BME280;51709;54.912;8.316;2023-03-20T05:24:27;101398.09;;;5.81;81.90
65131;BME280;51709;54.912;8.316;2023-03-20T05:30:07;101415.84;;;5.75;82.31
65131;BME280;51709;54.912;8.316;2023-03-20T05:35:47;101426.00;;;5.70;82.46
65131;BME280;51709;54.912;8.316;2023-03-20T05:41:43;101414.09;;;5.69;82.21
65131;BME280;51709;54.912;8.316;2023-03-20T05:47:24;101421.75;;;5.69;82.43
65131;BME280;51709;54.912;8.316;2023-03-20T05:53:08;101430.25;;;5.70;82.27
65131;BME280;51709;54.912;8.316;2023-03-20T05:58:47;101416.63;;;5.66;82.48
65131;BME280;51709;54.912;8.316;2023-03-20T06:04:26;101426.78;;;5.65;82.63
65131;BME280;51709;54.912;8.316;2023-03-20T06:09:56;101419.13;;;5.62;82.81
65131;BME280;51709;54.912;8.316;2023-03-20T06:15:18;101418.28;;;5.61;82.95
65131;BME280;51709;54.912;8.316;2023-03-20T06:20:51;101420.84;;;5.61;82.95
65131;BME280;51709;54.912;8.316;2023-03-20T06:26:13;101428.47;;;5.63;82.92
65131;BME280;51709;54.912;8.316;2023-03-20T06:31:50;101431.91;;;5.66;82.91
65131;BME280;51709;54.912;8.316;2023-03-20T06:37:19;101426.84;;;5.68;82.74
65131;BME280;51709;54.912;8.316;2023-03-20T06:42:41;101443.00;;;5.70;82.96
65131;BME280;51709;54.912;8.316;2023-03-20T06:48:07;101440.44;;;5.70;82.89
65131;BME280;51709;54.912;8.316;2023-03-20T06:53:28;101444.69;;;5.73;83.11
65131;BME280;51709;54.912;8.316;2023-03-20T06:58:58;101452.31;;;5.69;83.28
65131;BME280;51709;54.912;8.316;2023-03-20T07:04:22;101448.97;;;5.77;83.19
65131;BME280;51709;54.912;8.316;2023-03-20T07:09:46;101453.28;;;5.85;82.75
65131;BME280;51709;54.912;8.316;2023-03-20T07:15:07;101455.03;;;5.90;82.96
65131;BME280;51709;54.912;8.316;2023-03-20T07:20:29;101460.97;;;5.87;82.96
65131;BME280;51709;54.912;8.316;2023-03-20T07:25:51;101449.94;;;5.91;82.90
65131;BME280;51709;54.912;8.316;2023-03-20T07:31:24;101458.44;;;5.95;82.81
65131;BME280;51709;54.912;8.316;2023-03-20T07:36:58;101464.50;;;6.03;82.93
65131;BME280;51709;54.912;8.316;2023-03-20T07:42:21;101464.56;;;6.09;82.40
65131;BME280;51709;54.912;8.316;2023-03-20T07:47:50;101465.44;;;6.17;82.44
65131;BME280;51709;54.912;8.316;2023-03-20T07:53:10;101464.75;;;6.39;81.91
65131;BME280;51709;54.912;8.316;2023-03-20T07:58:31;101475.06;;;6.54;81.65
65131;BME280;51709;54.912;8.316;2023-03-20T08:03:54;101480.19;;;6.60;81.48
65131;BME280;51709;54.912;8.316;2023-03-20T08:09:16;101475.13;;;6.68;81.44
65131;BME280;51709;54.912;8.316;2023-03-20T08:14:37;101473.44;;;6.72;81.62
65131;BME280;51709;54.912;8.316;2023-03-20T08:19:59;101475.22;;;6.85;81.54
65131;BME280;51709;54.912;8.316;2023-03-20T08:25:20;101479.50;;;6.89;81.28
65131;BME280;51709;54.912;8.316;2023-03-20T08:30:41;101483.75;;;6.90;81.46
65131;BME280;51709;54.912;8.316;2023-03-20T08:36:02;101490.53;;;6.84;81.42
65131;BME280;51709;54.912;8.316;2023-03-20T08:41:22;101482.88;;;6.85;81.97
65131;BME280;51709;54.912;8.316;2023-03-20T08:46:43;101475.28;;;7.02;81.44
65131;BME280;51709;54.912;8.316;2023-03-20T08:52:05;101468.53;;;7.12;81.22
65131;BME280;51709;54.912;8.316;2023-03-20T08:57:26;101471.06;;;7.12;81.16
65131;BME280;51709;54.912;8.316;2023-03-20T09:02:47;101475.31;;;7.12;81.61
65131;BME280;51709;54.912;8.316;2023-03-20T09:08:08;101475.31;;;7.15;81.20
65131;BME280;51709;54.912;8.316;2023-03-20T09:13:28;101479.53;;;6.97;81.94
65131;BME280;51709;54.912;8.316;2023-03-20T09:18:49;101479.56;;;7.11;81.59
65131;BME280;51709;54.912;8.316;2023-03-20T09:24:10;101478.78;;;7.35;81.03
65131;BME280;51709;54.912;8.316;2023-03-20T09:29:31;101472.84;;;7.44;80.71
65131;BME280;51709;54.912;8.316;2023-03-20T09:34:51;101477.13;;;7.50;80.70
65131;BME280;51709;54.912;8.316;2023-03-20T09:40:51;101480.50;;;7.35;81.23
65131;BME280;51709;54.912;8.316;2023-03-20T09:46:40;101486.50;;;7.55;80.94
65131;BME280;51709;54.912;8.316;2023-03-20T09:52:14;101480.59;;;7.94;80.17
65131;BME280;51709;54.912;8.316;2023-03-20T09:57:50;101484.00;;;8.05;79.73
65131;BME280;51709;54.912;8.316;2023-03-20T10:03:31;101493.34;;;7.83;80.55
65131;BME280;51709;54.912;8.316;2023-03-20T10:08:58;101490.81;;;7.95;80.24
65131;BME280;51709;54.912;8.316;2023-03-20T10:25:48;101477.19;;;7.82;80.82
65131;BME280;51709;54.912;8.316;2023-03-20T10:42:51;101470.38;;;8.18;80.01
65131;BME280;51709;54.912;8.316;2023-03-20T10:48:19;101475.47;;;8.14;80.17
65131;BME280;51709;54.912;8.316;2023-03-20T10:53:52;101470.38;;;7.97;80.80
65131;BME280;51709;54.912;8.316;2023-03-20T10:59:28;101462.69;;;7.89;81.11
65131;BME280;51709;54.912;8.316;2023-03-20T11:04:52;101454.19;;;8.02;81.09
65131;BME280;51709;54.912;8.316;2023-03-20T11:10:13;101456.69;;;8.26;80.55
65131;BME280;51709;54.912;8.316;2023-03-20T11:15:36;101452.31;;;8.84;79.63
65131;BME280;51709;54.912;8.316;2023-03-20T11:21:00;101447.72;;;10.51;75.67
65131;BME280;51709;54.912;8.316;2023-03-20T11:26:36;101445.84;;;10.67;75.27
65131;BME280;51709;54.912;8.316;2023-03-20T11:32:05;101450.41;;;10.40;76.92
65131;BME280;51709;54.912;8.316;2023-03-20T11:37:28;101453.19;;;10.12;77.86
65131;BME280;51709;54.912;8.316;2023-03-20T11:48:25;101451.44;;;8.92;80.99
65131;BME280;51709;54.912;8.316;2023-03-20T11:54:01;101449.88;;;8.56;81.69
65131;BME280;51709;54.912;8.316;2023-03-20T11:59:30;101447.34;;;8.18;82.30
65131;BME280;51709;54.912;8.316;2023-03-20T12:04:58;101460.13;;;8.08;82.10
65131;BME280;51709;54.912;8.316;2023-03-20T12:10:21;101452.47;;;8.06;82.08
65131;BME280;51709;54.912;8.316;2023-03-20T12:15:48;101440.56;;;8.08;81.82
65131;BME280;51709;54.912;8.316;2023-03-20T12:21:22;101442.13;;;8.81;80.26
65131;BME280;51709;54.912;8.316;2023-03-20T12:26:54;101418.63;;;11.19;75.13
65131;BME280;51709;54.912;8.316;2023-03-20T12:32:24;101437.94;;;17.90;57.51
65131;BME280;51709;54.912;8.316;2023-03-20T12:37:47;101434.13;;;15.92;63.60
65131;BME280;51709;54.912;8.316;2023-03-20T12:43:18;101450.44;;;14.17;69.50
65131;BME280;51709;54.912;8.316;2023-03-20T12:48:46;101460.34;;;12.43;74.51
65131;BME280;51709;54.912;8.316;2023-03-20T13:00:10;101466.84;;;10.14;79.18
65131;BME280;51709;54.912;8.316;2023-03-20T13:05:40;101464.75;;;9.55;79.99
65131;BME280;51709;54.912;8.316;2023-03-20T13:11:23;101462.28;;;9.38;79.94
65131;BME280;51709;54.912;8.316;2023-03-20T13:17:21;101452.94;;;9.29;79.60
65131;BME280;51709;54.912;8.316;2023-03-20T13:40:05;101440.34;;;8.97;79.03
65131;BME280;51709;54.912;8.316;2023-03-20T13:45:37;101440.19;;;9.20;78.15
65131;BME280;51709;54.912;8.316;2023-03-20T14:14:02;101418.78;;;10.39;75.75
65131;BME280;51709;54.912;8.316;2023-03-20T14:19:27;101430.09;;;10.16;75.46
65131;BME280;51709;54.912;8.316;2023-03-20T14:24:59;101420.97;;;9.83;76.43
65131;BME280;51709;54.912;8.316;2023-03-20T14:36:19;101418.28;;;9.97;75.47
65131;BME280;51709;54.912;8.316;2023-03-20T14:41:59;101412.13;;;9.09;77.61
65131;BME280;51709;54.912;8.316;2023-03-20T14:47:43;101425.06;;;8.70;78.37
65131;BME280;51709;54.912;8.316;2023-03-20T14:59:03;101431.13;;;8.26;78.70
65131;BME280;51709;54.912;8.316;2023-03-20T15:04:32;101432.00;;;8.15;78.58
65131;BME280;51709;54.912;8.316;2023-03-20T15:09:56;101424.34;;;8.06;78.56
65131;BME280;51709;54.912;8.316;2023-03-20T15:15:29;101429.47;;;7.83;78.81
65131;BME280;51709;54.912;8.316;2023-03-20T15:20:51;101429.47;;;7.81;78.84
65131;BME280;51709;54.912;8.316;2023-03-20T15:26:17;101427.75;;;7.72;78.50
65131;BME280;51709;54.912;8.316;2023-03-20T15:31:40;101415.00;;;7.93;78.02
65131;BME280;51709;54.912;8.316;2023-03-20T15:37:01;101412.44;;;8.00;77.58
65131;BME280;51709;54.912;8.316;2023-03-20T15:42:24;101411.59;;;7.94;77.79
65131;BME280;51709;54.912;8.316;2023-03-20T15:47:44;101420.97;;;7.82;77.69
65131;BME280;51709;54.912;8.316;2023-03-20T15:53:07;101422.66;;;7.71;78.25
65131;BME280;51709;54.912;8.316;2023-03-20T15:58:31;101424.38;;;7.55;78.46
65131;BME280;51709;54.912;8.316;2023-03-20T16:03:56;101424.34;;;7.44;78.51
65131;BME280;51709;54.912;8.316;2023-03-20T16:09:18;101422.66;;;7.51;78.25
65131;BME280;51709;54.912;8.316;2023-03-20T16:14:39;101431.13;;;7.42;78.48
65131;BME280;51709;54.912;8.316;2023-03-20T16:20:00;101437.09;;;7.32;78.70
65131;BME280;51709;54.912;8.316;2023-03-20T16:25:22;101443.00;;;7.21;78.77
65131;BME280;51709;54.912;8.316;2023-03-20T16:30:43;101447.28;;;7.18;78.77
65131;BME280;51709;54.912;8.316;2023-03-20T16:36:04;101446.38;;;7.13;78.86
65131;BME280;51709;54.912;8.316;2023-03-20T16:41:38;101443.84;;;7.13;78.77
65131;BME280;51709;54.912;8.316;2023-03-20T16:47:01;101446.41;;;7.11;78.81
65131;BME280;51709;54.912;8.316;2023-03-20T16:52:27;101454.03;;;7.08;78.84
65131;BME280;51709;54.912;8.316;2023-03-20T16:57:52;101437.88;;;7.09;78.59
65131;BME280;51709;54.912;8.316;2023-03-20T17:03:16;101436.97;;;6.94;78.98
65131;BME280;51709;54.912;8.316;2023-03-20T17:08:42;101446.31;;;6.86;79.27
65131;BME280;51709;54.912;8.316;2023-03-20T17:14:04;101448.88;;;6.89;78.92
65131;BME280;51709;54.912;8.316;2023-03-20T17:19:25;101457.38;;;6.94;78.87
65131;BME280;51709;54.912;8.316;2023-03-20T17:24:46;101457.41;;;7.01;78.80
65131;BME280;51709;54.912;8.316;2023-03-20T17:30:18;101454.88;;;7.01;78.97
65131;BME280;51709;54.912;8.316;2023-03-20T17:35:39;101460.00;;;7.04;78.77
65131;BME280;51709;54.912;8.316;2023-03-20T17:41:00;101461.69;;;7.03;78.94
65131;BME280;51709;54.912;8.316;2023-03-20T17:46:30;101469.31;;;7.00;78.90
65131;BME280;51709;54.912;8.316;2023-03-20T17:52:02;101476.13;;;7.06;78.89
65131;BME280;51709;54.912;8.316;2023-03-20T17:57:32;101486.34;;;7.03;79.00
65131;BME280;51709;54.912;8.316;2023-03-20T18:02:53;101482.94;;;6.96;78.94
65131;BME280;51709;54.912;8.316;2023-03-20T18:08:19;101488.00;;;6.93;79.29
65131;BME280;51709;54.912;8.316;2023-03-20T18:13:41;101482.94;;;7.01;78.97
65131;BME280;51709;54.912;8.316;2023-03-20T18:19:02;101480.41;;;6.99;79.06
65131;BME280;51709;54.912;8.316;2023-03-20T18:24:23;101476.97;;;6.97;79.26
65131;BME280;51709;54.912;8.316;2023-03-20T18:29:45;101479.50;;;6.91;79.20
65131;BME280;51709;54.912;8.316;2023-03-20T18:35:05;101478.59;;;6.83;79.51
65131;BME280;51709;54.912;8.316;2023-03-20T18:40:29;101476.06;;;6.84;79.56
65131;BME280;51709;54.912;8.316;2023-03-20T18:45:49;101477.75;;;6.82;79.42
65131;BME280;51709;54.912;8.316;2023-03-20T18:51:10;101472.66;;;6.79;79.59
65131;BME280;51709;54.912;8.316;2023-03-20T18:56:31;101464.06;;;6.71;79.57
65131;BME280;51709;54.912;8.316;2023-03-20T19:01:57;101465.75;;;6.67;79.72
65131;BME280;51709;54.912;8.316;2023-03-20T19:07:18;101459.00;;;6.72;79.58
65131;BME280;51709;54.912;8.316;2023-03-20T19:12:39;101462.41;;;6.77;79.60
65131;BME280;51709;54.912;8.316;2023-03-20T19:18:01;101458.16;;;6.73;79.63
65131;BME280;51709;54.912;8.316;2023-03-20T19:23:23;101457.31;;;6.74;79.86
65131;BME280;51709;54.912;8.316;2023-03-20T19:28:45;101460.72;;;6.79;79.77
65131;BME280;51709;54.912;8.316;2023-03-20T19:34:06;101462.44;;;6.81;79.49
65131;BME280;51709;54.912;8.316;2023-03-20T19:39:27;101464.94;;;6.73;79.69
65131;BME280;51709;54.912;8.316;2023-03-20T19:44:48;101455.59;;;6.75;79.59
65131;BME280;51709;54.912;8.316;2023-03-20T19:50:34;101458.19;;;6.79;79.61
65131;BME280;51709;54.912;8.316;2023-03-20T19:55:55;101459.03;;;6.83;79.30
65131;BME280;51709;54.912;8.316;2023-03-20T20:01:18;101466.69;;;6.82;79.58
65131;BME280;51709;54.912;8.316;2023-03-20T20:06:40;101474.34;;;6.83;79.31
65131;BME280;51709;54.912;8.316;2023-03-20T20:12:01;101462.47;;;6.88;79.27
65131;BME280;51709;54.912;8.316;2023-03-20T20:17:24;101458.19;;;6.84;79.30
65131;BME280;51709;54.912;8.316;2023-03-20T20:22:45;101466.69;;;6.83;79.52
65131;BME280;51709;54.912;8.316;2023-03-20T20:28:07;101464.13;;;6.83;79.73
65131;BME280;51709;54.912;8.316;2023-03-20T20:33:28;101460.78;;;6.90;79.68
65131;BME280;51709;54.912;8.316;2023-03-20T20:38:49;101452.22;;;6.82;79.88
65131;BME280;51709;54.912;8.316;2023-03-20T20:44:18;101450.56;;;6.81;79.78
65131;BME280;51709;54.912;8.316;2023-03-20T20:49:39;101447.13;;;6.79;79.94
65131;BME280;51709;54.912;8.316;2023-03-20T20:55:00;101450.53;;;6.84;79.90
65131;BME280;51709;54.912;8.316;2023-03-20T21:00:41;101450.56;;;6.86;79.60
65131;BME280;51709;54.912;8.316;2023-03-20T21:06:12;101457.31;;;6.82;80.05
65131;BME280;51709;54.912;8.316;2023-03-20T21:11:33;101450.56;;;6.87;79.77
65131;BME280;51709;54.912;8.316;2023-03-20T21:16:54;101450.59;;;6.93;79.99
65131;BME280;51709;54.912;8.316;2023-03-20T21:22:20;101446.31;;;6.91;79.70
65131;BME280;51709;54.912;8.316;2023-03-20T21:27:42;101437.78;;;6.78;80.04
65131;BME280;51709;54.912;8.316;2023-03-20T21:33:03;101447.09;;;6.73;80.25
65131;BME280;51709;54.912;8.316;2023-03-20T21:38:24;101447.91;;;6.61;80.38
65131;BME280;51709;54.912;8.316;2023-03-20T21:44:06;101447.06;;;6.67;80.32
65131;BME280;51709;54.912;8.316;2023-03-20T21:49:27;101456.50;;;6.80;79.85
65131;BME280;51709;54.912;8.316;2023-03-20T21:55:08;101445.44;;;6.83;79.79
65131;BME280;51709;54.912;8.316;2023-03-20T22:00:48;101453.97;;;6.85;79.79
65131;BME280;51709;54.912;8.316;2023-03-20T22:06:30;101456.44;;;6.71;80.17
65131;BME280;51709;54.912;8.316;2023-03-20T22:12:11;101459.81;;;6.67;80.08
65131;BME280;51709;54.912;8.316;2023-03-20T22:17:52;101444.50;;;6.62;80.22
65131;BME280;51709;54.912;8.316;2023-03-20T22:23:32;101449.53;;;6.50;80.76
65131;BME280;51709;54.912;8.316;2023-03-20T22:29:14;101450.28;;;6.38;80.83
65131;BME280;51709;54.912;8.316;2023-03-20T22:34:56;101442.69;;;6.39;80.87
65131;BME280;51709;54.912;8.316;2023-03-20T22:40:38;101441.81;;;6.39;80.74
65131;BME280;51709;54.912;8.316;2023-03-20T22:46:20;101441.00;;;6.43;80.76
65131;BME280;51709;54.912;8.316;2023-03-20T22:52:00;101441.00;;;6.49;80.54
65131;BME280;51709;54.912;8.316;2023-03-20T22:57:41;101430.81;;;6.49;80.54
65131;BME280;51709;54.912;8.316;2023-03-20T23:03:19;101427.50;;;6.64;80.17
65131;BME280;51709;54.912;8.316;2023-03-20T23:08:59;101420.69;;;6.66;79.90
65131;BME280;51709;54.912;8.316;2023-03-20T23:14:32;101427.50;;;6.66;79.85
65131;BME280;51709;54.912;8.316;2023-03-20T23:20:06;101428.38;;;6.71;80.10
65131;BME280;51709;54.912;8.316;2023-03-20T23:25:32;101421.59;;;6.71;80.06
65131;BME280;51709;54.912;8.316;2023-03-20T23:31:13;101430.91;;;6.69;80.42
65131;BME280;51709;54.912;8.316;2023-03-20T23:36:35;101425.88;;;6.80;79.87
65131;BME280;51709;54.912;8.316;2023-03-20T23:41:57;101424.16;;;6.81;80.10
65131;BME280;51709;54.912;8.316;2023-03-20T23:47:34;101419.00;;;6.67;80.31
65131;BME280;51709;54.912;8.316;2023-03-20T23:53:15;101413.09;;;6.72;80.32
65131;BME280;51709;54.912;8.316;2023-03-20T23:58:56;101417.34;;;6.73;80.64
